ADDS METAR Data INFO
IDs: Format: Raw Decoded Include TAF

Data at: 0734 UTC 18 Oct 2017

KDMO 180653Z AUTO 20008KT 10SM CLR 12/06 A3014 RMK AO2 SLP201 T01220061
KDMO 180553Z AUTO 19006KT 10SM CLR 12/07 A3014 RMK AO2 SLP203 T01220067 10150 20117 402220061 58002
KDMO 180453Z AUTO 18009KT 10SM CLR 13/07 A3014 RMK AO2 SLP205 T01280072
KDMO 180353Z AUTO 18009KT 10SM CLR 12/08 A3015 RMK AO2 SLP208 T01220078
KDMO 180253Z AUTO 18010KT 10SM CLR 13/08 A3014 RMK AO2 SLP207 T01330078 51002
KDMO 180153Z AUTO 18009KT 10SM CLR 13/08 A3014 RMK AO2 SLP207 T01330083
KDMO 180053Z AUTO 17008KT 10SM CLR 13/09 A3014 RMK AO2 SLP209 T01330089
KDMO 172353Z AUTO 16006KT 10SM CLR 15/09 A3014 RMK AO2 SLP206 T01500089 10222 20150 56007
KDMO 172253Z AUTO 19004KT 10SM CLR 19/08 A3014 RMK AO2 SLP206 T01890083
KDMO 172153Z AUTO 20010KT 10SM CLR 22/07 A3015 RMK AO2 SLP207 T02170072
KDMO 172053Z AUTO 21012KT 10SM CLR 22/07 A3016 RMK AO2 SLP211 T02170067 56025
KDMO 171953Z AUTO 18011KT 10SM CLR 22/09 A3018 RMK AO2 SLP216 T02170089
KDMO 171853Z AUTO 20014KT 10SM CLR 22/08 A3020 RMK AO2 SLP224 T02170078
KDMO 171753Z AUTO 21014G21KT 10SM CLR 21/08 A3024 RMK AO2 SLP238 T02060078 10206 20061 58014
KDMO 171653Z AUTO 22012G19KT 10SM CLR 19/07 A3026 RMK AO2 SLP246 T01940072
KDMO 171553Z AUTO 22011KT 10SM CLR 17/08 A3027 RMK AO2 SLP249 T01720078
KDMO 171453Z AUTO 19010KT 10SM CLR 14/07 A3028 RMK AO2 SLP254 T01390072 51004
KDMO 171353Z AUTO 18007KT 10SM CLR 11/07 A3028 RMK AO2 SLP256 T01060072
KDMO 171253Z AUTO 17006KT 10SM CLR 07/06 A3027 RMK AO2 SLP253 T00670056
KDMO 171153Z AUTO 18006KT 10SM CLR 07/05 A3027 RMK AO2 SLP250 T00720050 10100 20067 51003
KDMO 171053Z AUTO 18008KT 10SM CLR 07/06 A3026 RMK AO2 SLP247 T00720056
KDMO 170953Z AUTO 20005KT 10SM CLR 09/06 A3027 RMK AO2 SLP248 T00940061
KDMO 170853Z AUTO 20005KT 10SM CLR 09/06 A3026 RMK AO2 SLP245 T00940056 58002
KDMO 170753Z AUTO 20006KT 10SM CLR 10/06 A3027 RMK AO2 SLP248 T01000061
KDMO 170653Z AUTO 20006KT 10SM CLR 09/07 A3027 RMK AO2 SLP249 T00940067
KDMO 170553Z AUTO 19005KT 10SM CLR 09/07 A3027 RMK AO2 SLP248 T00940067 10161 20083 402110056 58007
KDMO 170453Z AUTO 19006KT 10SM CLR 09/07 A3029 RMK AO2 SLP256 T00940067
KDMO 170353Z AUTO 21005KT 10SM CLR 11/07 A3030 RMK AO2 SLP259 T01110067
KDMO 170253Z AUTO 21004KT 10SM CLR 12/07 A3029 RMK AO2 SLP256 T01220067 51003
KDMO 170153Z AUTO 18005KT 10SM CLR 11/07 A3028 RMK AO2 SLP256 T01060067
KDMO 170053Z AUTO 19005KT 10SM CLR 14/06 A3029 RMK AO2 SLP258 T01390061
KDMO 162353Z AUTO 20004KT 10SM CLR 16/06 A3028 RMK AO2 SLP255 T01610061 10211 20156 56010
KDMO 162253Z AUTO 21007KT 10SM CLR 18/06 A3028 RMK AO2 SLP254 T01830056
KDMO 162153Z AUTO 23007KT 10SM CLR 20/05 A3029 RMK AO2 SLP257 T02000050
KDMO 162053Z AUTO 21010KT 10SM CLR 20/04 A3031 RMK AO2 SLP264 T02000044 56026
KDMO 161953Z AUTO 24005KT 10SM CLR 21/04 A3033 RMK AO2 SLP269 T02060039